createdAt,value
2023-09-03T00:01:49.739Z,101878.06
2023-09-03T00:04:48.359Z,101882.41
2023-09-03T00:07:33.400Z,101874.72
2023-09-03T00:10:25.358Z,101852.59
2023-09-03T00:13:16.380Z,101856.59
2023-09-03T00:16:01.373Z,101854.44
2023-09-03T00:18:52.390Z,101853.50
2023-09-03T00:21:43.375Z,101851.75
2023-09-03T00:24:28.413Z,101857.66
2023-09-03T00:27:20.382Z,101852.47
2023-09-03T00:30:05.696Z,101856.81
2023-09-03T00:32:57.416Z,101859.38
2023-09-03T00:35:44.832Z,101866.31
2023-09-03T00:38:38.383Z,101874.66
2023-09-03T00:41:23.695Z,101864.81
2023-09-03T00:44:15.370Z,101867.16
2023-09-03T00:47:00.511Z,101865.19
2023-09-03T00:49:52.378Z,101871.59
2023-09-03T00:52:38.257Z,101866.22
2023-09-03T00:55:32.668Z,101870.91
2023-09-03T00:58:26.388Z,101860.38
2023-09-03T01:01:18.421Z,101866.94
2023-09-03T01:04:10.437Z,101865.44
2023-09-03T01:06:55.585Z,101872.94
2023-09-03T01:09:48.382Z,101877.53
2023-09-03T01:12:41.580Z,101887.84
2023-09-03T01:15:37.428Z,101887.66
2023-09-03T01:18:25.352Z,101886.34
2023-09-03T01:21:45.381Z,101883.38
2023-09-03T01:25:12.414Z,101896.09
2023-09-03T01:28:26.639Z,101914.19
2023-09-03T01:31:24.440Z,101915.84
2023-09-03T01:34:10.465Z,101921.69
2023-09-03T01:37:02.410Z,101928.72
2023-09-03T01:39:47.769Z,101919.53
2023-09-03T01:42:39.408Z,101921.88
2023-09-03T01:45:44.414Z,101932.59
2023-09-03T01:49:00.953Z,101927.41
2023-09-03T01:52:05.462Z,101918.75
2023-09-03T01:54:59.401Z,101915.72
2023-09-03T01:57:50.085Z,101915.44
2023-09-03T02:00:41.432Z,101923.13
2023-09-03T02:03:34.411Z,101922.66
2023-09-03T02:06:32.404Z,101919.59
2023-09-03T02:09:17.674Z,101934.50
2023-09-03T02:12:09.415Z,101931.31
2023-09-03T02:14:54.442Z,101941.38
2023-09-03T02:17:45.437Z,101935.84
2023-09-03T02:20:37.408Z,101929.88
2023-09-03T02:23:22.317Z,101924.16
2023-09-03T02:26:15.404Z,101931.84
2023-09-03T02:29:00.641Z,101928.69
2023-09-03T02:31:52.415Z,101924.03
2023-09-03T02:34:38.172Z,101932.41
2023-09-03T02:37:29.419Z,101940.44
2023-09-03T02:40:14.354Z,101939.78
2023-09-03T02:43:06.425Z,101929.22
2023-09-03T02:45:51.916Z,101921.69
2023-09-03T02:48:43.431Z,101931.75
2023-09-03T02:51:28.880Z,101930.09
2023-09-03T02:54:20.415Z,101940.03
2023-09-03T02:57:05.542Z,101943.19
2023-09-03T02:59:57.418Z,101940.50
2023-09-03T03:02:42.797Z,101941.38
2023-09-03T03:05:41.434Z,101949.97
2023-09-03T03:08:26.653Z,101966.16
2023-09-03T03:11:23.432Z,101960.13
2023-09-03T03:14:08.610Z,101959.75
2023-09-03T03:17:00.425Z,101956.13
2023-09-03T03:19:49.719Z,101946.25
2023-09-03T03:22:41.440Z,101954.94
2023-09-03T03:25:26.474Z,101946.09
2023-09-03T03:28:18.907Z,101943.41
2023-09-03T03:31:20.625Z,101948.28
2023-09-03T03:34:12.537Z,101958.88
2023-09-03T03:37:04.429Z,101970.22
2023-09-03T03:39:57.428Z,101971.22
2023-09-03T03:42:42.275Z,101989.66
2023-09-03T03:45:34.487Z,101985.13
2023-09-03T03:48:20.123Z,101969.75
2023-09-03T03:51:12.475Z,101964.41
2023-09-03T03:54:06.453Z,101955.03
2023-09-03T03:56:51.553Z,101958.41
2023-09-03T03:59:43.454Z,101947.00
2023-09-03T04:02:28.673Z,101943.66
2023-09-03T04:05:27.447Z,101954.53
2023-09-03T04:08:12.682Z,101957.19
2023-09-03T04:11:11.459Z,101950.38
2023-09-03T04:13:59.298Z,101942.97
2023-09-03T04:16:51.517Z,101945.47
2023-09-03T04:19:36.668Z,101949.66
2023-09-03T04:22:28.461Z,101956.88
2023-09-03T04:25:13.679Z,101960.03
2023-09-03T04:28:05.458Z,101952.00
2023-09-03T04:30:57.851Z,101949.53
2023-09-03T04:33:49.478Z,101941.28
2023-09-03T04:36:35.101Z,101939.31
2023-09-03T04:39:26.474Z,101943.66
2023-09-03T04:42:18.475Z,101944.69
2023-09-03T04:45:03.904Z,101963.56
2023-09-03T04:47:55.486Z,101972.75
2023-09-03T04:50:40.600Z,101986.97
2023-09-03T04:53:32.461Z,101986.78
2023-09-03T04:56:17.580Z,101999.00
2023-09-03T04:59:09.481Z,101995.53
2023-09-03T05:01:54.388Z,101998.53
2023-09-03T05:04:53.480Z,102011.72
2023-09-03T05:07:45.184Z,102028.28
2023-09-03T05:10:36.649Z,102029.59
2023-09-03T05:13:21.575Z,102029.94
2023-09-03T05:16:13.516Z,102020.91
2023-09-03T05:19:05.454Z,102031.81
2023-09-03T05:21:57.470Z,102041.00
2023-09-03T05:24:43.147Z,102044.84
2023-09-03T05:27:38.993Z,102052.72
2023-09-03T05:30:24.009Z,102052.22
2023-09-03T05:33:15.505Z,102045.22
2023-09-03T05:36:07.486Z,102055.06
2023-09-03T05:38:58.477Z,102064.94
2023-09-03T05:41:43.292Z,102065.78
2023-09-03T05:44:34.490Z,102071.47
2023-09-03T05:47:19.952Z,102076.16
2023-09-03T05:50:11.460Z,102068.97
2023-09-03T05:52:56.360Z,102068.63
2023-09-03T05:55:50.470Z,102070.13
2023-09-03T05:58:36.003Z,102072.63
2023-09-03T06:01:27.476Z,102074.78
2023-09-03T06:04:20.945Z,102082.63
2023-09-03T06:07:19.493Z,102083.13
2023-09-03T06:10:05.363Z,102088.94
2023-09-03T06:12:56.499Z,102091.81
2023-09-03T06:15:41.821Z,102095.78
2023-09-03T06:18:33.629Z,102101.84
2023-09-03T06:21:18.802Z,102098.59
2023-09-03T06:24:10.504Z,102096.72
2023-09-03T06:26:57.934Z,102096.63
2023-09-03T06:29:49.507Z,102107.84
2023-09-03T06:32:34.760Z,102111.50
2023-09-03T06:35:26.513Z,102116.84
2023-09-03T06:38:11.424Z,102109.72
2023-09-03T06:41:02.496Z,102123.78
2023-09-03T06:43:50.181Z,102117.06
2023-09-03T06:46:41.538Z,102135.00
2023-09-03T06:49:27.260Z,102141.25
2023-09-03T06:52:18.515Z,102137.84
2023-09-03T06:55:03.968Z,102142.72
2023-09-03T06:57:55.519Z,102148.94
2023-09-03T07:00:40.741Z,102155.59
2023-09-03T07:03:32.611Z,102165.03
2023-09-03T07:06:24.064Z,102168.22
2023-09-03T07:09:18.512Z,102178.91
2023-09-03T07:12:04.654Z,102195.84
2023-09-03T07:14:56.569Z,102190.06
2023-09-03T07:17:41.638Z,102185.72
2023-09-03T07:20:32.507Z,102196.78
2023-09-03T07:23:17.760Z,102195.31
2023-09-03T07:26:12.515Z,102200.16
2023-09-03T07:28:57.755Z,102207.94
2023-09-03T07:31:51.521Z,102224.44
2023-09-03T07:34:36.722Z,102218.72
2023-09-03T07:37:28.516Z,102214.81
2023-09-03T07:40:13.781Z,102218.31
2023-09-03T07:43:05.533Z,102211.88
2023-09-03T07:45:50.446Z,102212.56
2023-09-03T07:48:41.549Z,102218.28
2023-09-03T07:51:26.973Z,102215.16
2023-09-03T07:54:18.539Z,102208.78
2023-09-03T07:57:03.738Z,102217.41
2023-09-03T07:59:59.525Z,102207.94
2023-09-03T08:02:51.554Z,102213.38
2023-09-03T08:05:43.512Z,102216.56
2023-09-03T08:08:36.544Z,102213.84
2023-09-03T08:11:22.269Z,102215.91
2023-09-03T08:14:16.569Z,102227.69
2023-09-03T08:17:07.558Z,102233.72
2023-09-03T08:20:20.551Z,102240.88
2023-09-03T08:23:12.545Z,102244.78
2023-09-03T08:26:04.581Z,102232.31
2023-09-03T08:28:52.770Z,102224.81
2023-09-03T08:31:44.588Z,102222.81
2023-09-03T08:34:29.593Z,102230.59
2023-09-03T08:37:21.591Z,102229.88
2023-09-03T08:40:07.999Z,102243.50
2023-09-03T08:43:00.538Z,102244.22
2023-09-03T08:45:52.413Z,102253.66
2023-09-03T08:48:44.613Z,102241.88
2023-09-03T08:51:32.748Z,102231.78
2023-09-03T08:54:24.551Z,102245.81
2023-09-03T08:57:10.440Z,102251.63
2023-09-03T09:00:03.565Z,102243.19
2023-09-03T09:02:49.511Z,102238.09
2023-09-03T09:05:41.557Z,102245.88
2023-09-03T09:08:39.554Z,102231.81
2023-09-03T09:11:29.896Z,102224.03
2023-09-03T09:14:37.566Z,102214.81
2023-09-03T09:17:22.587Z,102205.38
2023-09-03T09:20:16.628Z,102196.22
2023-09-03T09:23:01.729Z,102191.22
2023-09-03T09:25:53.572Z,102188.06
2023-09-03T09:28:59.745Z,102201.72
2023-09-03T09:31:51.567Z,102202.44
2023-09-03T09:34:43.351Z,102199.09
2023-09-03T09:37:47.545Z,102211.34
2023-09-03T09:40:33.285Z,102223.31
2023-09-03T09:43:24.734Z,102218.75
2023-09-03T09:46:25.772Z,102222.00
2023-09-03T09:49:17.565Z,102205.63
2023-09-03T09:52:09.579Z,102187.13
2023-09-03T09:54:54.723Z,102183.38
2023-09-03T09:57:46.586Z,102168.69
2023-09-03T10:00:44.523Z,102174.34
2023-09-03T10:03:55.695Z,102175.91
2023-09-03T10:06:55.590Z,102169.19
2023-09-03T10:09:42.080Z,102164.31
2023-09-03T10:12:33.736Z,102159.09
2023-09-03T10:15:20.853Z,102175.88
2023-09-03T10:18:15.594Z,102168.34
2023-09-03T10:21:02.082Z,102167.28
2023-09-03T10:23:56.625Z,102166.59
2023-09-03T10:26:46.150Z,102162.00
2023-09-03T10:29:41.570Z,102159.22
2023-09-03T10:32:28.220Z,102158.81
2023-09-03T10:35:20.592Z,102158.13
2023-09-03T10:38:33.317Z,102168.25
2023-09-03T10:41:31.583Z,102162.88
2023-09-03T10:44:16.834Z,102160.00
2023-09-03T10:47:08.589Z,102152.69
2023-09-03T10:49:55.645Z,102150.47
2023-09-03T10:52:47.594Z,102150.03
2023-09-03T10:55:32.909Z,102155.63
2023-09-03T10:58:29.654Z,102159.91
2023-09-03T11:01:21.776Z,102151.47
2023-09-03T11:04:13.633Z,102157.66
2023-09-03T11:07:23.635Z,102150.94
2023-09-03T11:10:27.614Z,102144.28
2023-09-03T11:13:36.120Z,102146.28
2023-09-03T11:16:33.030Z,102156.09
2023-09-03T11:19:24.609Z,102149.25
2023-09-03T11:22:09.922Z,102143.31
2023-09-03T11:25:01.619Z,102139.34
2023-09-03T11:27:50.235Z,102139.13
2023-09-03T11:30:42.660Z,102132.88
2023-09-03T11:33:29.319Z,102126.84
2023-09-03T11:36:20.627Z,102129.34
2023-09-03T11:39:15.078Z,102129.09
2023-09-03T11:42:06.637Z,102129.97
2023-09-03T11:44:51.858Z,102127.38
2023-09-03T11:47:46.677Z,102131.13
2023-09-03T11:50:31.958Z,102125.66
2023-09-03T11:53:23.846Z,102124.00
2023-09-03T11:56:19.648Z,102119.84
2023-09-03T11:59:05.870Z,102122.75
2023-09-03T12:01:59.649Z,102126.28
2023-09-03T12:04:51.701Z,102129.41
2023-09-03T12:07:50.607Z,102115.03
2023-09-03T12:10:35.716Z,102126.09
2023-09-03T12:13:46.632Z,102126.72
2023-09-03T12:16:31.488Z,102134.19
2023-09-03T12:19:22.646Z,102130.03
2023-09-03T12:22:08.752Z,102128.41
2023-09-03T12:25:00.630Z,102123.00
2023-09-03T12:27:49.520Z,102124.44
2023-09-03T12:31:10.757Z,102125.06
2023-09-03T12:33:55.679Z,102130.88
2023-09-03T12:37:07.641Z,102127.75
2023-09-03T12:39:52.715Z,102121.09
2023-09-03T12:42:44.765Z,102130.25
2023-09-03T12:45:29.812Z,102125.06
2023-09-03T12:48:21.653Z,102122.97
2023-09-03T12:51:13.646Z,102112.34
2023-09-03T12:54:04.667Z,102110.91
2023-09-03T12:56:57.649Z,102118.94
2023-09-03T12:59:50.630Z,102117.53
2023-09-03T13:02:41.758Z,102110.88
2023-09-03T13:05:32.756Z,102108.41
2023-09-03T13:08:30.662Z,102113.81
2023-09-03T13:11:22.643Z,102113.19
2023-09-03T13:14:14.695Z,102111.09
2023-09-03T13:16:59.966Z,102107.53
2023-09-03T13:19:51.674Z,102105.66
2023-09-03T13:22:42.662Z,102103.00
2023-09-03T13:25:35.117Z,102103.19
2023-09-03T13:28:26.677Z,102113.00
2023-09-03T13:31:11.914Z,102109.63
2023-09-03T13:34:03.670Z,102115.91
2023-09-03T13:36:50.241Z,102106.06
2023-09-03T13:39:42.681Z,102107.34
2023-09-03T13:42:27.540Z,102104.25
2023-09-03T13:45:20.674Z,102102.38
2023-09-03T13:48:06.514Z,102118.00
2023-09-03T13:51:02.657Z,102114.22
2023-09-03T13:53:48.972Z,102115.91
2023-09-03T13:56:42.600Z,102116.72
2023-09-03T13:59:27.662Z,102127.56
2023-09-03T14:02:21.700Z,102122.34
2023-09-03T14:05:13.767Z,102123.56
2023-09-03T14:08:11.690Z,102113.78
2023-09-03T14:11:00.477Z,102114.59
2023-09-03T14:13:54.693Z,102115.22
2023-09-03T14:16:39.945Z,102112.56
2023-09-03T14:19:31.691Z,102111.94
2023-09-03T14:22:23.688Z,102105.47
2023-09-03T14:25:14.693Z,102108.41
2023-09-03T14:28:05.697Z,102101.91
2023-09-03T14:30:50.691Z,102099.03
2023-09-03T14:33:41.697Z,102104.19
2023-09-03T14:36:26.915Z,102099.41
2023-09-03T14:39:20.427Z,102093.19
2023-09-03T14:42:18.300Z,102093.41
2023-09-03T14:45:09.711Z,102096.56
2023-09-03T14:47:54.958Z,102090.91
2023-09-03T14:50:49.727Z,102105.50
2023-09-03T14:53:34.814Z,102097.59
2023-09-03T14:56:27.697Z,102092.81
2023-09-03T14:59:12.847Z,102096.38
2023-09-03T15:02:04.740Z,102090.72
2023-09-03T15:04:55.713Z,102085.72
2023-09-03T15:07:47.752Z,102083.88
2023-09-03T15:10:41.728Z,102088.25
2023-09-03T15:13:28.462Z,102092.59
2023-09-03T15:16:20.728Z,102089.06
2023-09-03T15:19:12.744Z,102095.72
2023-09-03T15:21:57.720Z,102096.38
2023-09-03T15:24:50.720Z,102085.94
2023-09-03T15:27:42.721Z,102091.78
2023-09-03T15:30:33.531Z,102091.78
2023-09-03T15:33:25.727Z,102084.69
2023-09-03T15:36:10.939Z,102084.91
2023-09-03T15:39:02.724Z,102083.25
2023-09-03T15:41:50.770Z,102086.78
2023-09-03T15:44:42.726Z,102087.63
2023-09-03T15:47:27.858Z,102088.66
2023-09-03T15:50:19.749Z,102090.31
2023-09-03T15:53:04.913Z,102100.94
2023-09-03T15:55:56.755Z,102089.28
2023-09-03T15:58:48.730Z,102089.91
2023-09-03T16:01:33.875Z,102075.72
2023-09-03T16:04:25.739Z,102078.63
2023-09-03T16:07:24.728Z,102081.97
2023-09-03T16:10:10.071Z,102086.56
2023-09-03T16:13:04.725Z,102087.59
2023-09-03T16:15:56.775Z,102094.25
2023-09-03T16:18:47.767Z,102100.09
2023-09-03T16:21:38.111Z,102094.84
2023-09-03T16:24:29.750Z,102098.38
2023-09-03T16:27:14.706Z,102102.72
2023-09-03T16:30:05.757Z,102099.59
2023-09-03T16:32:50.946Z,102086.69
2023-09-03T16:35:42.756Z,102084.56
2023-09-03T16:38:29.164Z,102084.97
2023-09-03T16:41:20.746Z,102082.69
2023-09-03T16:44:06.103Z,102086.78
2023-09-03T16:46:57.798Z,102092.72
2023-09-03T16:49:42.704Z,102082.41
2023-09-03T16:52:34.810Z,102082.63
2023-09-03T16:55:21.129Z,102082.72
2023-09-03T16:58:12.765Z,102074.78
2023-09-03T17:01:04.789Z,102071.22
2023-09-03T17:03:53.230Z,102075.03
2023-09-03T17:06:44.771Z,102076.03
2023-09-03T17:09:35.884Z,102074.84
2023-09-03T17:12:27.745Z,102074.31
2023-09-03T17:15:12.762Z,102070.78
2023-09-03T17:18:04.811Z,102072.13
2023-09-03T17:20:49.985Z,102074.34
2023-09-03T17:23:45.803Z,102073.66
2023-09-03T17:26:30.754Z,102073.81
2023-09-03T17:29:22.765Z,102074.81
2023-09-03T17:32:08.090Z,102084.66
2023-09-03T17:35:04.037Z,102079.34
2023-09-03T17:37:58.160Z,102086.47
2023-09-03T17:40:43.170Z,102081.47
2023-09-03T17:43:34.789Z,102084.31
2023-09-03T17:46:27.864Z,102084.44
2023-09-03T17:49:12.627Z,102085.53
2023-09-03T17:52:03.761Z,102088.03
2023-09-03T17:54:51.779Z,102090.22
2023-09-03T17:57:43.773Z,102083.03
2023-09-03T18:00:35.801Z,102090.38
2023-09-03T18:03:27.857Z,102088.19
2023-09-03T18:06:33.793Z,102083.28
2023-09-03T18:09:25.781Z,102088.13
2023-09-03T18:12:16.785Z,102096.84
2023-09-03T18:15:01.685Z,102100.19
2023-09-03T18:17:52.810Z,102092.31
2023-09-03T18:20:43.801Z,102091.19
2023-09-03T18:23:28.734Z,102096.09
2023-09-03T18:26:19.791Z,102103.53
2023-09-03T18:29:07.233Z,102095.28
2023-09-03T18:32:00.680Z,102103.06
2023-09-03T18:34:45.823Z,102101.72
2023-09-03T18:37:37.789Z,102099.22
2023-09-03T18:40:23.018Z,102113.22
2023-09-03T18:43:14.881Z,102103.47
2023-09-03T18:46:00.655Z,102102.72
2023-09-03T18:48:51.802Z,102101.59
2023-09-03T18:51:36.967Z,102109.75
2023-09-03T18:54:28.796Z,102109.25
2023-09-03T18:57:15.858Z,102108.50
2023-09-03T19:00:08.812Z,102110.91
2023-09-03T19:02:53.752Z,102113.28
2023-09-03T19:05:50.351Z,102117.53
2023-09-03T19:08:42.037Z,102117.97
2023-09-03T19:11:36.815Z,102118.66
2023-09-03T19:14:22.033Z,102116.69
2023-09-03T19:17:20.788Z,102105.00
2023-09-03T19:20:08.599Z,102107.84
2023-09-03T19:23:01.694Z,102109.25
2023-09-03T19:26:00.970Z,102124.50
2023-09-03T19:28:46.676Z,102123.88
2023-09-03T19:31:38.825Z,102115.63
2023-09-03T19:34:25.977Z,102112.13
2023-09-03T19:37:17.821Z,102118.31
2023-09-03T19:40:09.827Z,102109.44
2023-09-03T19:42:54.843Z,102106.63
2023-09-03T19:45:48.853Z,102108.44
2023-09-03T19:48:44.653Z,102122.19
2023-09-03T19:51:29.988Z,102120.56
2023-09-03T19:54:21.818Z,102125.94
2023-09-03T19:57:06.742Z,102109.88
2023-09-03T20:00:00.841Z,102114.94
2023-09-03T20:02:51.312Z,102114.66
2023-09-03T20:05:46.829Z,102096.50
2023-09-03T20:08:38.956Z,102098.44
2023-09-03T20:11:30.885Z,102106.72
2023-09-03T20:14:15.801Z,102101.22
2023-09-03T20:17:07.839Z,102108.34
2023-09-03T20:19:56.358Z,102102.03
2023-09-03T20:22:50.883Z,102100.88
2023-09-03T20:25:37.723Z,102100.75
2023-09-03T20:28:43.571Z,102097.78
2023-09-03T20:31:36.894Z,102107.69
2023-09-03T20:34:23.279Z,102105.38
2023-09-03T20:37:14.859Z,102108.53
2023-09-03T20:39:59.757Z,102102.53
2023-09-03T20:42:51.844Z,102115.06
2023-09-03T20:45:37.058Z,102116.75
2023-09-03T20:48:28.871Z,102117.41
2023-09-03T20:51:13.868Z,102119.44
2023-09-03T20:54:09.720Z,102116.59
2023-09-03T20:56:55.010Z,102117.44
2023-09-03T20:59:48.842Z,102116.44
2023-09-03T21:02:39.624Z,102120.47
2023-09-03T21:05:31.842Z,102116.63
2023-09-03T21:08:25.031Z,102118.16
2023-09-03T21:11:16.849Z,102122.84
2023-09-03T21:14:03.603Z,102120.00
2023-09-03T21:16:54.892Z,102111.31
2023-09-03T21:19:39.806Z,102108.47
2023-09-03T21:22:30.849Z,102113.97
2023-09-03T21:25:24.862Z,102111.97
2023-09-03T21:28:09.892Z,102114.31
2023-09-03T21:31:00.851Z,102113.66
2023-09-03T21:33:49.862Z,102118.50
2023-09-03T21:36:41.852Z,102127.03
2023-09-03T21:39:26.826Z,102130.03
2023-09-03T21:42:18.857Z,102127.38
2023-09-03T21:45:10.862Z,102124.50
2023-09-03T21:48:03.927Z,102128.88
2023-09-03T21:51:02.631Z,102130.69
2023-09-03T21:54:04.863Z,102135.50
2023-09-03T21:56:58.125Z,102138.59
2023-09-03T21:59:49.856Z,102144.88
2023-09-03T22:02:49.947Z,102141.66
2023-09-03T22:05:40.903Z,102148.72
2023-09-03T22:08:38.873Z,102150.53
2023-09-03T22:11:24.210Z,102155.34
2023-09-03T22:14:15.887Z,102156.84
2023-09-03T22:17:05.341Z,102152.69
2023-09-03T22:19:58.882Z,102159.88
2023-09-03T22:22:48.901Z,102156.38
2023-09-03T22:25:40.891Z,102160.25
2023-09-03T22:28:32.868Z,102156.81
2023-09-03T22:31:26.995Z,102160.16
2023-09-03T22:34:11.757Z,102155.94
2023-09-03T22:37:03.869Z,102162.13
2023-09-03T22:39:48.921Z,102167.81
2023-09-03T22:42:40.919Z,102154.41
2023-09-03T22:45:26.148Z,102154.56
2023-09-03T22:48:17.901Z,102147.72
2023-09-03T22:51:03.353Z,102156.94
2023-09-03T22:53:54.885Z,102146.03
2023-09-03T22:56:40.250Z,102149.28
2023-09-03T22:59:31.884Z,102146.78
2023-09-03T23:02:17.278Z,102155.78
2023-09-03T23:05:08.877Z,102155.97
2023-09-03T23:08:02.176Z,102151.47
2023-09-03T23:10:53.878Z,102151.28
2023-09-03T23:13:41.839Z,102153.97
2023-09-03T23:16:41.819Z,102152.66
2023-09-03T23:19:26.970Z,102149.81
2023-09-03T23:22:21.906Z,102151.81
2023-09-03T23:25:10.001Z,102151.28
2023-09-03T23:28:04.898Z,102155.44
2023-09-03T23:30:50.099Z,102160.66
2023-09-03T23:33:41.881Z,102152.72
2023-09-03T23:36:27.104Z,102161.28
2023-09-03T23:39:21.903Z,102158.00
2023-09-03T23:42:07.219Z,102157.81
2023-09-03T23:45:06.906Z,102160.25
2023-09-03T23:47:52.169Z,102156.78
2023-09-03T23:50:43.876Z,102165.47
2023-09-03T23:53:30.491Z,102163.06
2023-09-03T23:56:24.909Z,102169.59
2023-09-03T23:59:09.802Z,102164.13
